createdAt,value
2023-04-27T00:02:10.416Z,10.93
2023-04-27T00:04:37.885Z,10.94
2023-04-27T00:07:05.233Z,10.93
2023-04-27T00:09:32.250Z,10.92
2023-04-27T00:11:59.285Z,10.90
2023-04-27T00:14:28.830Z,10.91
2023-04-27T00:16:56.485Z,10.91
2023-04-27T00:19:23.766Z,10.90
2023-04-27T00:21:50.831Z,10.91
2023-04-27T00:24:17.917Z,10.92
2023-04-27T00:26:44.955Z,10.94
2023-04-27T00:29:12.488Z,10.94
2023-04-27T00:31:39.799Z,10.94
2023-04-27T00:34:06.851Z,10.93
2023-04-27T00:36:35.222Z,10.95
2023-04-27T00:39:03.447Z,10.98
2023-04-27T00:41:33.003Z,11.02
2023-04-27T00:44:00.191Z,11.03
2023-04-27T00:46:28.258Z,11.05
2023-04-27T00:48:56.334Z,11.07
2023-04-27T00:51:28.076Z,11.11
2023-04-27T00:53:57.540Z,11.15
2023-04-27T00:56:24.708Z,11.18
2023-04-27T00:58:51.769Z,11.20
2023-04-27T01:01:20.942Z,11.22
2023-04-27T01:03:48.702Z,11.24
2023-04-27T01:06:15.955Z,11.25
2023-04-27T01:08:44.328Z,11.25
2023-04-27T01:11:11.389Z,11.25
2023-04-27T01:13:39.407Z,11.22
2023-04-27T01:16:06.589Z,11.18
2023-04-27T01:18:33.878Z,11.19
2023-04-27T01:21:01.434Z,11.24
2023-04-27T01:23:28.468Z,11.28
2023-04-27T01:25:55.546Z,11.32
2023-04-27T01:28:22.698Z,11.33
2023-04-27T01:30:49.839Z,11.34
2023-04-27T01:33:17.784Z,11.35
2023-04-27T01:35:44.804Z,11.34
2023-04-27T01:38:12.148Z,11.34
2023-04-27T01:40:39.186Z,11.33
2023-04-27T01:43:06.494Z,11.30
2023-04-27T01:45:35.013Z,11.25
2023-04-27T01:48:02.098Z,11.23
2023-04-27T01:50:29.224Z,11.26
2023-04-27T01:52:56.308Z,11.33
2023-04-27T01:55:23.369Z,11.35
2023-04-27T01:57:50.548Z,11.33
2023-04-27T02:00:18.844Z,11.33
2023-04-27T02:02:51.506Z,11.29
2023-04-27T02:05:18.745Z,11.28
2023-04-27T02:07:46.329Z,11.26
2023-04-27T02:10:13.388Z,11.24
2023-04-27T02:12:40.407Z,11.23
2023-04-27T02:15:09.082Z,11.21
2023-04-27T02:17:36.205Z,11.18
2023-04-27T02:20:05.693Z,11.15
2023-04-27T02:22:32.875Z,11.14
2023-04-27T02:25:00.364Z,11.11
2023-04-27T02:27:27.421Z,11.08
2023-04-27T02:29:55.077Z,11.05
2023-04-27T02:32:23.384Z,11.03
2023-04-27T02:34:50.460Z,11.02
2023-04-27T02:37:18.984Z,11.02
2023-04-27T02:39:47.530Z,11.02
2023-04-27T02:42:14.970Z,11.02
2023-04-27T02:44:42.963Z,11.00
2023-04-27T02:47:10.478Z,10.99
2023-04-27T02:49:38.180Z,10.95
2023-04-27T02:52:05.454Z,10.94
2023-04-27T02:54:32.707Z,10.92
2023-04-27T02:56:59.757Z,10.92
2023-04-27T02:59:26.793Z,10.94
2023-04-27T03:01:54.110Z,10.95
2023-04-27T03:04:21.438Z,10.98
2023-04-27T03:06:48.974Z,10.99
2023-04-27T03:09:16.324Z,11.00
2023-04-27T03:11:43.750Z,10.99
2023-04-27T03:14:10.789Z,10.99
2023-04-27T03:16:37.813Z,11.00
2023-04-27T03:19:05.307Z,11.01
2023-04-27T03:21:32.329Z,11.01
2023-04-27T03:23:59.300Z,11.00
2023-04-27T03:26:27.027Z,10.99
2023-04-27T03:28:54.112Z,10.97
2023-04-27T03:31:21.206Z,10.97
2023-04-27T03:33:48.321Z,10.99
2023-04-27T03:36:15.657Z,11.03
2023-04-27T03:38:42.749Z,11.14
2023-04-27T03:41:10.057Z,11.44
2023-04-27T03:43:37.215Z,11.71
2023-04-27T03:46:04.419Z,11.82
2023-04-27T03:48:31.978Z,11.86
2023-04-27T03:51:00.792Z,11.92
2023-04-27T03:53:27.850Z,11.99
2023-04-27T03:55:54.945Z,12.05
2023-04-27T03:58:22.024Z,12.08
2023-04-27T04:01:22.207Z,12.06
2023-04-27T04:03:49.385Z,11.94
2023-04-27T04:06:16.614Z,11.90
2023-04-27T04:08:44.953Z,11.99
2023-04-27T04:11:12.185Z,12.05
2023-04-27T04:13:39.356Z,12.04
2023-04-27T04:16:08.104Z,12.01
2023-04-27T04:18:35.818Z,11.98
2023-04-27T04:21:03.289Z,11.96
2023-04-27T04:23:30.293Z,11.97
2023-04-27T04:25:57.969Z,11.95
2023-04-27T04:28:26.627Z,11.96
2023-04-27T04:30:53.727Z,11.97
2023-04-27T04:33:20.869Z,11.97
2023-04-27T04:35:49.146Z,11.98
2023-04-27T04:38:16.580Z,12.00
2023-04-27T04:40:45.853Z,12.01
2023-04-27T04:43:13.686Z,12.01
2023-04-27T04:45:42.217Z,11.97
2023-04-27T04:48:10.566Z,11.92
2023-04-27T04:50:37.758Z,11.88
2023-04-27T04:53:04.847Z,11.88
2023-04-27T04:55:33.399Z,11.90
2023-04-27T04:58:00.779Z,11.92
2023-04-27T05:00:28.407Z,11.95
2023-04-27T05:02:55.565Z,11.97
2023-04-27T05:05:22.812Z,12.00
2023-04-27T05:07:49.878Z,12.03
2023-04-27T05:10:17.023Z,12.06
2023-04-27T05:12:44.822Z,12.08
2023-04-27T05:15:12.172Z,12.09
2023-04-27T05:17:39.198Z,12.09
2023-04-27T05:20:08.080Z,12.07
2023-04-27T05:22:35.083Z,12.03
2023-04-27T05:25:02.077Z,11.97
2023-04-27T05:27:29.136Z,11.92
2023-04-27T05:29:56.141Z,11.89
2023-04-27T05:32:23.114Z,11.86
2023-04-27T05:34:50.091Z,11.83
2023-04-27T05:37:17.125Z,11.81
2023-04-27T05:39:44.198Z,11.82
2023-04-27T05:42:11.594Z,11.83
2023-04-27T05:44:38.725Z,11.87
2023-04-27T05:47:06.290Z,11.93
2023-04-27T05:49:33.418Z,12.02
2023-04-27T05:52:01.008Z,12.11
2023-04-27T05:54:27.997Z,12.20
2023-04-27T05:56:55.014Z,12.33
2023-04-27T05:59:22.086Z,12.47
2023-04-27T06:01:49.406Z,12.61
2023-04-27T06:04:16.837Z,12.76
2023-04-27T06:06:45.004Z,12.95
2023-04-27T06:09:12.262Z,13.15
2023-04-27T06:11:39.615Z,13.39
2023-04-27T06:14:06.956Z,13.69
2023-04-27T06:16:34.058Z,13.97
2023-04-27T06:19:01.205Z,14.19
2023-04-27T06:21:28.501Z,14.35
2023-04-27T06:23:55.600Z,14.46
2023-04-27T06:26:22.622Z,14.60
2023-04-27T06:28:49.608Z,14.75
2023-04-27T06:31:17.276Z,14.84
2023-04-27T06:33:44.334Z,15.03
2023-04-27T06:36:11.725Z,15.17
2023-04-27T06:38:38.839Z,15.26
2023-04-27T06:41:06.231Z,15.31
2023-04-27T06:43:33.330Z,15.36
2023-04-27T06:46:00.876Z,15.46
2023-04-27T06:48:27.952Z,15.58
2023-04-27T06:50:55.008Z,15.76
2023-04-27T06:53:22.206Z,15.93
2023-04-27T06:55:49.766Z,16.06
2023-04-27T06:58:16.997Z,16.23
2023-04-27T07:00:43.995Z,16.37
2023-04-27T07:03:11.276Z,16.51
2023-04-27T07:05:38.666Z,16.67
2023-04-27T07:08:08.499Z,16.76
2023-04-27T07:10:36.258Z,16.82
2023-04-27T07:13:03.255Z,16.88
2023-04-27T07:15:33.170Z,17.00
2023-04-27T07:18:00.281Z,17.15
2023-04-27T07:20:27.426Z,17.28
2023-04-27T07:22:54.476Z,17.43
2023-04-27T07:25:21.801Z,17.56
2023-04-27T07:27:48.772Z,17.60
2023-04-27T07:30:17.588Z,17.63
2023-04-27T07:32:44.768Z,17.71
2023-04-27T07:35:11.794Z,17.79
2023-04-27T07:37:38.927Z,17.91
2023-04-27T07:40:14.742Z,18.01
2023-04-27T07:42:46.579Z,18.14
2023-04-27T07:45:14.326Z,18.30
2023-04-27T07:47:42.643Z,18.39
2023-04-27T07:50:10.799Z,18.50
2023-04-27T07:52:37.853Z,18.68
2023-04-27T07:55:05.321Z,18.78
2023-04-27T07:57:32.373Z,18.80
2023-04-27T07:59:59.397Z,18.89
2023-04-27T08:02:30.663Z,19.02
2023-04-27T08:04:58.212Z,19.10
2023-04-27T08:07:26.048Z,19.22
2023-04-27T08:09:53.587Z,19.39
2023-04-27T08:12:20.643Z,19.56
2023-04-27T08:14:47.682Z,19.63
2023-04-27T08:17:14.782Z,19.50
2023-04-27T08:19:42.166Z,19.33
2023-04-27T08:22:09.213Z,19.23
2023-04-27T08:24:36.693Z,19.12
2023-04-27T08:27:03.838Z,19.14
2023-04-27T08:29:31.166Z,19.28
2023-04-27T08:31:59.980Z,19.46
2023-04-27T08:34:27.853Z,19.64
2023-04-27T08:36:55.110Z,19.87
2023-04-27T08:39:22.132Z,19.99
2023-04-27T08:41:49.149Z,20.05
2023-04-27T08:44:16.357Z,20.24
2023-04-27T08:46:43.472Z,20.37
2023-04-27T08:49:10.866Z,20.55
2023-04-27T08:51:38.085Z,20.87
2023-04-27T08:54:05.102Z,21.03
2023-04-27T08:56:32.149Z,21.06
2023-04-27T08:58:59.484Z,21.10
2023-04-27T09:01:27.775Z,21.08
2023-04-27T09:03:59.255Z,21.14
2023-04-27T09:06:34.105Z,21.25
2023-04-27T09:09:01.455Z,21.25
2023-04-27T09:11:38.866Z,21.19
2023-04-27T09:14:36.297Z,21.08
2023-04-27T09:17:03.737Z,21.03
2023-04-27T09:19:30.881Z,21.09
2023-04-27T09:22:11.737Z,21.10
2023-04-27T09:24:39.105Z,21.00
2023-04-27T09:27:07.327Z,20.94
2023-04-27T09:29:38.249Z,21.00
2023-04-27T09:32:19.414Z,21.11
2023-04-27T09:34:46.898Z,21.30
2023-04-27T09:37:14.469Z,21.56
2023-04-27T09:39:42.154Z,21.70
2023-04-27T09:42:09.382Z,21.87
2023-04-27T09:47:41.386Z,22.44
2023-04-27T09:50:08.760Z,22.55
2023-04-27T09:52:35.938Z,22.67
2023-04-27T09:55:03.014Z,22.81
2023-04-27T09:57:46.062Z,23.02
2023-04-27T10:00:52.796Z,22.95
2023-04-27T10:03:30.412Z,22.92
2023-04-27T10:06:30.854Z,22.87
2023-04-27T10:08:59.636Z,22.92
2023-04-27T10:11:44.466Z,22.92
2023-04-27T10:14:18.352Z,23.00
2023-04-27T10:16:56.334Z,23.26
2023-04-27T10:19:24.628Z,23.55
2023-04-27T10:22:07.985Z,23.64
2023-04-27T10:24:39.541Z,23.73
2023-04-27T10:27:08.903Z,24.07
2023-04-27T10:29:46.259Z,24.71
2023-04-27T10:32:24.780Z,25.30
2023-04-27T10:35:09.583Z,25.44
2023-04-27T10:37:41.598Z,25.23
2023-04-27T10:40:17.604Z,24.86
2023-04-27T10:42:45.778Z,24.73
2023-04-27T10:45:15.726Z,24.69
2023-04-27T10:47:46.294Z,24.72
2023-04-27T10:50:13.938Z,24.70
2023-04-27T10:52:44.410Z,24.58
2023-04-27T10:55:22.055Z,24.45
2023-04-27T10:57:53.553Z,24.42
2023-04-27T11:00:28.203Z,24.43
2023-04-27T11:02:56.610Z,24.53
2023-04-27T11:05:25.462Z,24.56
2023-04-27T11:07:52.836Z,24.53
2023-04-27T11:10:20.324Z,24.56
2023-04-27T11:12:47.470Z,24.54
2023-04-27T11:15:14.700Z,24.43
2023-04-27T11:17:41.914Z,24.34
2023-04-27T11:20:09.623Z,24.51
2023-04-27T11:22:46.619Z,24.77
2023-04-27T11:25:13.787Z,24.86
2023-04-27T11:27:41.252Z,24.74
2023-04-27T11:30:19.416Z,24.49
2023-04-27T11:32:46.485Z,24.37
2023-04-27T11:35:14.020Z,24.26
2023-04-27T11:37:41.836Z,24.19
2023-04-27T11:40:10.073Z,24.16
2023-04-27T11:42:37.118Z,24.23
2023-04-27T11:45:09.430Z,24.33
2023-04-27T11:47:36.725Z,24.36
2023-04-27T11:50:06.266Z,24.34
2023-04-27T11:52:34.429Z,24.30
2023-04-27T11:55:02.283Z,24.21
2023-04-27T11:57:31.403Z,24.11
2023-04-27T12:00:02.920Z,23.85
2023-04-27T12:02:40.961Z,23.58
2023-04-27T12:05:10.113Z,23.43
2023-04-27T12:07:37.653Z,23.19
2023-04-27T12:10:06.864Z,23.20
2023-04-27T12:12:33.906Z,23.31
2023-04-27T12:15:01.299Z,23.15
2023-04-27T12:17:28.371Z,23.00
2023-04-27T12:19:55.548Z,22.85
2023-04-27T12:22:22.663Z,22.70
2023-04-27T12:24:49.637Z,22.60
2023-04-27T12:27:17.113Z,22.52
2023-04-27T12:29:44.185Z,22.43
2023-04-27T12:32:11.153Z,22.52
2023-04-27T12:34:39.649Z,22.86
2023-04-27T12:37:07.257Z,23.11
2023-04-27T12:39:34.596Z,23.14
2023-04-27T12:42:02.659Z,23.17
2023-04-27T12:44:29.723Z,23.45
2023-04-27T12:46:56.915Z,23.68
2023-04-27T12:49:23.919Z,23.67
2023-04-27T12:51:52.162Z,23.53
2023-04-27T12:54:19.257Z,23.41
2023-04-27T12:56:47.434Z,23.27
2023-04-27T12:59:14.540Z,23.05
2023-04-27T13:01:41.745Z,22.86
2023-04-27T13:04:09.526Z,22.73
2023-04-27T13:06:36.902Z,22.62
2023-04-27T13:09:04.053Z,22.51
2023-04-27T13:11:31.172Z,22.36
2023-04-27T13:13:59.198Z,22.30
2023-04-27T13:16:26.677Z,22.29
2023-04-27T13:18:55.629Z,22.25
2023-04-27T13:21:23.544Z,22.19
2023-04-27T13:23:51.390Z,22.08
2023-04-27T13:26:18.865Z,21.96
2023-04-27T13:28:46.380Z,21.87
2023-04-27T13:31:13.439Z,21.70
2023-04-27T13:33:42.452Z,21.49
2023-04-27T13:36:10.365Z,21.34
2023-04-27T13:38:37.430Z,21.25
2023-04-27T13:41:04.571Z,21.19
2023-04-27T13:43:31.673Z,21.09
2023-04-27T13:46:01.118Z,20.99
2023-04-27T13:48:28.840Z,20.92
2023-04-27T13:50:56.516Z,20.86
2023-04-27T13:53:26.786Z,20.77
2023-04-27T13:55:54.910Z,20.71
2023-04-27T13:58:23.728Z,20.63
2023-04-27T14:00:53.270Z,20.54
2023-04-27T14:03:20.821Z,20.48
2023-04-27T14:05:51.694Z,20.37
2023-04-27T14:08:18.938Z,20.27
2023-04-27T14:10:46.132Z,20.20
2023-04-27T14:13:13.242Z,20.13
2023-04-27T14:15:41.303Z,20.05
2023-04-27T14:18:08.763Z,19.97
2023-04-27T14:20:36.393Z,19.91
2023-04-27T14:23:04.322Z,19.84
2023-04-27T14:25:34.693Z,19.79
2023-04-27T14:28:03.160Z,19.69
2023-04-27T14:30:34.655Z,19.61
2023-04-27T14:33:01.883Z,19.54
2023-04-27T14:35:29.591Z,19.48
2023-04-27T14:38:02.387Z,19.38
2023-04-27T14:40:30.714Z,19.29
2023-04-27T14:42:58.761Z,19.20
2023-04-27T14:45:30.974Z,19.15
2023-04-27T14:48:04.210Z,19.05
2023-04-27T14:50:31.308Z,18.99
2023-04-27T14:52:59.128Z,18.95
2023-04-27T14:55:26.145Z,18.92
2023-04-27T14:57:53.223Z,18.94
2023-04-27T15:00:20.442Z,19.04
2023-04-27T15:02:47.603Z,19.12
2023-04-27T15:05:14.665Z,19.15
2023-04-27T15:07:41.713Z,19.20
2023-04-27T15:10:09.500Z,19.20
2023-04-27T15:12:36.660Z,19.22
2023-04-27T15:15:03.975Z,19.21
2023-04-27T15:17:31.271Z,19.19
2023-04-27T15:19:58.348Z,19.20
2023-04-27T15:22:25.390Z,19.22
2023-04-27T15:24:52.436Z,19.23
2023-04-27T15:27:19.492Z,19.19
2023-04-27T15:29:46.460Z,19.12
2023-04-27T15:32:13.631Z,19.06
2023-04-27T15:34:44.696Z,19.03
2023-04-27T15:37:11.982Z,19.01
2023-04-27T15:39:39.054Z,18.98
2023-04-27T15:42:06.120Z,18.91
2023-04-27T15:44:33.154Z,18.81
2023-04-27T15:47:00.274Z,18.73
2023-04-27T15:49:27.826Z,18.66
2023-04-27T15:51:55.659Z,18.59
2023-04-27T15:54:22.669Z,18.54
2023-04-27T15:56:49.695Z,18.47
2023-04-27T15:59:16.960Z,18.39
2023-04-27T16:01:44.333Z,18.29
2023-04-27T16:04:11.825Z,18.14
2023-04-27T16:06:39.577Z,18.01
2023-04-27T16:09:10.427Z,17.87
2023-04-27T16:11:37.847Z,17.78
2023-04-27T16:14:04.874Z,17.71
2023-04-27T16:16:32.582Z,17.68
2023-04-27T16:18:59.702Z,17.66
2023-04-27T16:21:28.281Z,17.65
2023-04-27T16:23:55.277Z,17.64
2023-04-27T16:26:22.334Z,17.55
2023-04-27T16:28:49.388Z,17.44
2023-04-27T16:31:16.394Z,17.36
2023-04-27T16:33:43.445Z,17.17
2023-04-27T16:36:11.099Z,16.91
2023-04-27T16:38:39.372Z,16.69
2023-04-27T16:41:06.651Z,16.51
2023-04-27T16:43:34.108Z,16.36
2023-04-27T16:46:01.430Z,16.14
2023-04-27T16:48:28.614Z,15.96
2023-04-27T16:50:55.891Z,15.83
2023-04-27T16:53:23.022Z,15.74
2023-04-27T16:55:50.078Z,15.67
2023-04-27T16:58:17.097Z,15.58
2023-04-27T17:00:46.968Z,15.49
2023-04-27T17:03:14.163Z,15.43
2023-04-27T17:05:41.322Z,15.33
2023-04-27T17:08:08.884Z,15.22
2023-04-27T17:10:37.023Z,15.09
2023-04-27T17:13:05.113Z,14.97
2023-04-27T17:15:32.610Z,14.87
2023-04-27T17:18:02.455Z,14.79
2023-04-27T17:20:29.685Z,14.68
2023-04-27T17:22:56.914Z,14.61
2023-04-27T17:25:24.166Z,14.59
2023-04-27T17:27:51.602Z,14.52
2023-04-27T17:30:18.776Z,14.45
2023-04-27T17:32:46.135Z,14.43
2023-04-27T17:35:13.242Z,14.44
2023-04-27T17:37:40.312Z,14.44
2023-04-27T17:40:09.245Z,14.37
2023-04-27T17:42:36.463Z,14.28
2023-04-27T17:45:03.653Z,14.16
2023-04-27T17:47:31.122Z,14.07
2023-04-27T17:49:58.125Z,14.01
2023-04-27T17:52:25.208Z,13.97
2023-04-27T17:54:52.391Z,13.91
2023-04-27T17:57:19.671Z,13.86
2023-04-27T17:59:46.799Z,13.82
2023-04-27T18:02:13.930Z,13.79
2023-04-27T18:04:41.662Z,13.77
2023-04-27T18:07:08.901Z,13.74
2023-04-27T18:09:36.524Z,13.69
2023-04-27T18:12:04.469Z,13.65
2023-04-27T18:14:31.613Z,13.61
2023-04-27T18:17:00.602Z,13.58
2023-04-27T18:19:27.694Z,13.54
2023-04-27T18:21:55.383Z,13.50
2023-04-27T18:24:22.575Z,13.46
2023-04-27T18:26:50.710Z,13.41
2023-04-27T18:29:17.697Z,13.39
2023-04-27T18:31:44.886Z,13.36
2023-04-27T18:34:14.720Z,13.32
2023-04-27T18:36:41.849Z,13.30
2023-04-27T18:39:10.278Z,13.31
2023-04-27T18:41:37.337Z,13.32
2023-04-27T18:44:05.908Z,13.32
2023-04-27T18:46:33.313Z,13.31
2023-04-27T18:49:01.326Z,13.31
2023-04-27T18:51:29.349Z,13.29
2023-04-27T18:53:56.505Z,13.24
2023-04-27T18:56:23.632Z,13.21
2023-04-27T18:58:51.361Z,13.21
2023-04-27T19:01:20.486Z,13.21
2023-04-27T19:03:47.788Z,13.21
2023-04-27T19:06:15.831Z,13.21
2023-04-27T19:08:43.526Z,13.23
2023-04-27T19:11:11.269Z,13.23
2023-04-27T19:13:41.055Z,13.21
2023-04-27T19:16:08.901Z,13.21
2023-04-27T19:18:36.340Z,13.20
2023-04-27T19:21:03.926Z,13.20
2023-04-27T19:23:31.224Z,13.21
2023-04-27T19:26:09.727Z,13.25
2023-04-27T19:28:39.979Z,13.25
2023-04-27T19:31:07.248Z,13.22
2023-04-27T19:33:34.423Z,13.19
2023-04-27T19:36:01.391Z,13.16
2023-04-27T19:38:28.688Z,13.14
2023-04-27T19:40:55.734Z,13.09
2023-04-27T19:43:22.775Z,13.04
2023-04-27T19:45:49.807Z,12.99
2023-04-27T19:48:17.144Z,12.96
2023-04-27T19:50:44.328Z,12.93
2023-04-27T19:53:11.817Z,12.90
2023-04-27T19:55:40.470Z,12.88
2023-04-27T19:58:07.563Z,12.86
2023-04-27T20:00:34.872Z,12.78
2023-04-27T20:03:02.526Z,12.73
2023-04-27T20:05:29.885Z,12.70
2023-04-27T20:07:57.244Z,12.70
2023-04-27T20:10:24.293Z,12.76
2023-04-27T20:12:56.651Z,12.78
2023-04-27T20:15:24.662Z,12.77
2023-04-27T20:17:53.081Z,12.76
2023-04-27T20:20:20.978Z,12.73
2023-04-27T20:22:47.975Z,12.72
2023-04-27T20:25:15.027Z,12.71
2023-04-27T20:27:42.161Z,12.70
2023-04-27T20:30:09.619Z,12.67
2023-04-27T20:32:37.226Z,12.63
2023-04-27T20:35:04.955Z,12.60
2023-04-27T20:37:32.779Z,12.57
2023-04-27T20:40:01.077Z,12.58
2023-04-27T20:42:29.744Z,12.62
2023-04-27T20:44:56.808Z,12.65
2023-04-27T20:47:23.869Z,12.67
2023-04-27T20:49:51.584Z,12.71
2023-04-27T20:52:18.722Z,12.75
2023-04-27T20:54:45.815Z,12.76
2023-04-27T20:57:14.447Z,12.69
2023-04-27T20:59:41.730Z,12.62
2023-04-27T21:02:08.807Z,12.57
2023-04-27T21:04:36.274Z,12.55
2023-04-27T21:07:03.677Z,12.54
2023-04-27T21:09:31.644Z,12.56
2023-04-27T21:11:58.623Z,12.61
2023-04-27T21:14:25.582Z,12.63
2023-04-27T21:16:52.639Z,12.64
2023-04-27T21:19:19.712Z,12.59
2023-04-27T21:21:46.772Z,12.54
2023-04-27T21:24:13.913Z,12.50
2023-04-27T21:26:42.519Z,12.46
2023-04-27T21:29:09.589Z,12.41
2023-04-27T21:31:36.805Z,12.40
2023-04-27T21:34:04.059Z,12.39
2023-04-27T21:36:33.125Z,12.37
2023-04-27T21:39:00.214Z,12.36
2023-04-27T21:41:27.536Z,12.33
2023-04-27T21:43:54.688Z,12.31
2023-04-27T21:46:23.874Z,12.27
2023-04-27T21:48:51.044Z,12.20
2023-04-27T21:51:18.077Z,12.17
2023-04-27T21:53:45.151Z,12.18
2023-04-27T21:56:12.249Z,12.18
2023-04-27T21:58:39.216Z,12.17
2023-04-27T22:01:06.190Z,12.18
2023-04-27T22:05:22.077Z,12.17
2023-04-27T22:07:49.277Z,12.12
2023-04-27T22:10:16.418Z,12.07
2023-04-27T22:12:43.455Z,12.02
2023-04-27T22:15:10.805Z,11.98
2023-04-27T22:17:39.910Z,11.93
2023-04-27T22:20:11.465Z,11.89
2023-04-27T22:22:38.633Z,11.86
2023-04-27T22:25:07.196Z,11.85
2023-04-27T22:27:42.113Z,11.84
2023-04-27T22:30:12.741Z,11.82
2023-04-27T22:32:39.792Z,11.80
2023-04-27T22:35:18.682Z,11.78
2023-04-27T22:37:49.833Z,11.75
2023-04-27T22:40:16.901Z,11.73
2023-04-27T22:42:43.876Z,11.71
2023-04-27T22:45:12.057Z,11.71
2023-04-27T22:47:41.630Z,11.69
2023-04-27T22:50:09.106Z,11.67
2023-04-27T22:52:37.377Z,11.65
2023-04-27T22:55:05.053Z,11.64
2023-04-27T22:57:32.074Z,11.62
2023-04-27T22:59:59.227Z,11.58
2023-04-27T23:02:26.465Z,11.55
2023-04-27T23:04:53.579Z,11.53
2023-04-27T23:07:20.693Z,11.52
2023-04-27T23:09:48.462Z,11.52
2023-04-27T23:12:15.902Z,11.50
2023-04-27T23:14:43.058Z,11.45
2023-04-27T23:17:10.525Z,11.40
2023-04-27T23:19:38.041Z,11.37
2023-04-27T23:22:05.113Z,11.34
2023-04-27T23:24:32.196Z,11.31
2023-04-27T23:26:59.160Z,11.27
2023-04-27T23:29:26.146Z,11.24
2023-04-27T23:31:53.283Z,11.23
2023-04-27T23:34:20.270Z,11.22
2023-04-27T23:36:47.372Z,11.21
2023-04-27T23:39:14.419Z,11.18
2023-04-27T23:41:41.493Z,11.15
2023-04-27T23:44:08.653Z,11.14
2023-04-27T23:46:35.788Z,11.13
2023-04-27T23:49:03.241Z,11.13
2023-04-27T23:51:31.177Z,11.11
2023-04-27T23:53:58.175Z,11.09
2023-04-27T23:56:25.261Z,11.07
2023-04-27T23:58:52.318Z,11.05
